• Join FlightAware (Why Join?)
  • Login
  • US Flag 
02:20PM EDT


 

Airport Tracker/Info


-or-


 

Live Flight TrackerFlight Track Log ✈ RPA3242 ✈ 23-May-2013 ✈ KDTW - KPHL

Flight Track Log - Related Links

Times and Time Zones

All times are in EDT time to prevent confusion due to time zone crossing. See the RPA3242 flight status page for this flight to view local times or setup timezone preferences in your user account.

Time Position Orientation Groundspeed Altitude Reporting Facility
EDT Latitude Longitude Course Direction KTS MPH feet Rate Location/Type
08:22PM 42.2314 -83.3342 90° East 131 151 1,500  Level Cleveland Center
08:23PM 42.2719 -83.2967 34° Northeast 185 213 3,000 1,860 Climbing Cleveland Center
08:24PM 42.2167 -82.9764 90° East  Level FlightAware Approximate
08:24PM 42.3275 -83.2317 41° Northeast 248 285 5,900  Level Cleveland Center
08:25PM 42.2167 -82.8502 90° East  Level FlightAware Approximate
08:25PM 42.3272 -83.1586 90° East 275 316 8,100  Level Cleveland Center
08:25PM 42.3217 -83.1247 102° East 279 321 8,900 1,500 Climbing Cleveland Center
08:26PM 42.2167 -82.7240 90° East  Level FlightAware Approximate
08:26PM 42.3053 -83.0089 101° East 331 381 10,000  Level Cleveland Center
08:27PM 42.2167 -82.5978 90° East  Level FlightAware Approximate
08:27PM 42.2869 -82.8847 101° East 347 399 10,900  Level Cleveland Center
08:28PM 42.2686 -82.7633 101° East 342 394 13,400 2,340 Climbing Cleveland Center
08:29PM 42.2503 -82.6308 101° East 342 394 15,600 2,280 Climbing Cleveland Center
08:30PM 42.2297 -82.4900 101° East 355 409 18,000 2,220 Climbing Cleveland Center
08:31PM 42.2172 -82.3494 97° East 371 427 20,100 1,800 Climbing Cleveland Center
08:32PM 42.2050 -82.2033 96° East 378 435 21,700 1,560 Climbing Cleveland Center
08:33PM 42.1964 -82.0544 94° East 391 450 23,300 1,380 Climbing Cleveland Center
08:34PM 42.1711 -81.9222 104° East 397 457 24,500 1,320 Climbing Cleveland Center
08:35PM 42.0908 -81.8200 137° Southeast 371 427 26,000 1,380 Climbing Cleveland Center
08:36PM 42.0044 -81.7233 140° Southeast 389 448 27,300 1,200 Climbing Cleveland Center
08:37PM 41.9219 -81.6242 138° Southeast 402 463 28,500 1,080 Climbing Cleveland Center
08:38PM 41.8311 -81.5250 141° Southeast 407 468 29,500 1,140 Climbing Cleveland Center
08:39PM 41.7361 -81.4153 139° Southeast 414 476 30,800 720 Climbing Cleveland Center
08:40PM 41.6511 -81.3167 139° Southeast 414 476 31,000 60 Climbing Cleveland Center
08:41PM 41.5622 -81.2186 140° Southeast 414 476 31,000  Level Cleveland Center
08:42PM 41.4772 -81.1097 136° Southeast 414 476 31,000  Level Cleveland Center
08:43PM 41.3983 -81.0011 134° Southeast 407 468 31,000  Level Cleveland Center
08:44PM 41.3217 -80.8928 133° Southeast 401 461 31,000  Level Cleveland Center
08:45PM 41.2447 -80.7875 134° Southeast 401 461 31,000  Level Cleveland Center
08:46PM 41.1742 -80.6881 133° Southeast 401 461 31,000  Level Cleveland Center
08:47PM 41.0928 -80.5719 133° Southeast 396 456 31,000  Level Cleveland Center
08:48PM 41.0197 -80.4758 135° Southeast 384 442 31,000  Level Cleveland Center
08:49PM 40.9508 -80.3797 133° Southeast 373 429 31,000  Level Cleveland Center
08:50PM 40.8778 -80.2811 134° Southeast 373 429 31,000  Level Cleveland Center
08:51PM 40.8192 -80.2072 136° Southeast 347 399 31,000  Level Cleveland Center
08:52PM 40.8061 -80.0922 98° East 313 360 31,000  Level Cleveland Center
08:53PM 40.9167 -80.0667 10° North 207 238 31,000  Level Cleveland Center
08:54PM 40.9817 -80.1706 310° West 213 245 31,000  Level Cleveland Center
08:55PM 41.0528 -80.2664 315° West 289 333 31,000  Level Cleveland Center
08:56PM 41.1156 -80.3681 309° West 333 383 31,000  Level Cleveland Center
08:57PM 41.0864 -80.4619 248° West 262 302 31,000  Level Cleveland Center
08:58PM 41.0219 -80.5253 217° Southwest 236 272 31,000  Level Cleveland Center
08:59PM 40.9636 -80.5997 224° Southwest 269 310 31,000  Level Cleveland Center
09:00PM 40.8886 -80.5750 166° South 251 289 31,000  Level Cleveland Center
09:01PM 40.8550 -80.4650 112° Southeast 261 300 31,000  Level Cleveland Center
09:02PM 40.8133 -80.3389 114° Southeast 308 354 31,000  Level Cleveland Center
09:03PM 40.7775 -80.2239 112° Southeast 328 377 31,000  Level Cleveland Center
09:04PM 40.7394 -80.1064 113° Southeast 340 391 31,000  Level Cleveland Center
09:05PM 40.7036 -79.9889 112° Southeast 340 391 31,000  Level Cleveland Center
09:06PM 40.6653 -79.8742 114° Southeast 340 391 31,000  Level Cleveland Center
09:07PM 40.6231 -79.7681 118° Southeast 335 386 31,000  Level Cleveland Center
09:08PM 40.5556 -79.6922 140° Southeast 324 373 31,000  Level Cleveland Center
09:09PM 40.4906 -79.6194 140° Southeast 307 353 31,000  Level Cleveland Center
09:10PM 40.4253 -79.5439 139° Southeast 312 359 31,000  Level Cleveland Center
09:11PM 40.3597 -79.4686 139° Southeast 312 359 31,000  Level Cleveland Center
09:12PM 40.2922 -79.3908 139° Southeast 312 359 31,000  Level Cleveland Center
09:13PM 40.2411 -79.2911 124° Southeast 312 359 31,000  Level Cleveland Center
09:14PM 40.2478 -79.1522 86° East 331 381 31,000  Level Cleveland Center
09:15PM 40.2589 -79.0269 83° East 353 406 31,000  Level Cleveland Center
09:16PM 40.2650 -78.8881 87° East 370 426 31,000 -420 Level Cleveland Center
09:17PM 40.2733 -78.7436 86° East 384 442 30,200 -900 Descending Cleveland Center
09:18PM 40.2811 -78.5936 86° East 395 455 29,200 -1,020 Descending Cleveland Center
09:21PM 40.3011 -78.1961 86° East 417 480 26,700 -1,080 Descending New York Center
09:22PM 40.3086 -78.0389 86° East 423 487 25,600 -900 Descending New York Center
09:23PM 40.3117 -77.8867 88° East 423 487 25,000 -840 Descending New York Center
09:24PM 40.3103 -77.7369 91° East 418 481 24,000 -1,440 Descending New York Center
09:25PM 40.3106 -77.5897 90° East 418 481 22,100 -1,500 Descending New York Center
09:26PM 40.3061 -77.4478 92° East 401 461 21,000 -600 Descending New York Center
09:27PM 40.3056 -77.3089 90° East 390 449 21,000  Level New York Center
09:28PM 40.3008 -77.1669 92° East 385 443 21,000  Level New York Center
09:29PM 40.2914 -77.0300 95° East 385 443 21,000  Level New York Center
09:30PM 40.2586 -76.8989 108° East 379 436 21,000  Level New York Center
09:31PM 40.2300 -76.7686 106° East 379 436 21,000 -60 Level New York Center
09:32PM 40.1989 -76.6408 108° East 379 436 20,900 -1,080 Descending New York Center
09:33PM 40.1722 -76.5028 104° East 379 436 18,900 -1,860 Descending New York Center
09:34PM 40.1406 -76.3808 109° East 374 430 17,200 -1,920 Descending New York Center
09:35PM 40.1278 -76.2519 97° East 359 413 15,200 -1,920 Descending New York Center
09:36PM 40.1147 -76.1289 98° East 349 402 13,400 -1,740 Descending New York Center
09:37PM 40.1053 -76.0169 96° East 354 407 11,700 -1,740 Descending New York Center
09:38PM 40.0942 -75.8886 96° East 337 388 10,000 -1,680 Descending New York Center
09:39PM 40.0839 -75.7900 98° East 310 357 8,400 -1,200 Descending New York Center
09:40PM 40.0761 -75.6756 95° East 291 335 7,600 -1,200 Descending New York Center
09:41PM 40.0736 -75.5831 92° East 291 335 6,100 -840 Descending New York Center
09:42PM 40.0678 -75.4689 94° East 291 335 6,000 -60 Descending New York Center
09:43PM 40.0611 -75.3761 95° East 291 335 6,000  Level New York Center
09:44PM 40.0567 -75.2728 93° East 291 335 6,000  Level New York Center
09:44PM 40.0500 -75.2000 97° East 289 333 6,000 -240 Level Philadelphia TRACON
09:45PM 40.0500 -75.0833 90° East 285 328 5,700 -540 Descending Philadelphia TRACON
09:46PM 40.0167 -75.0000 118° Southeast 260 299 5,000 -360 Descending Philadelphia TRACON
09:47PM 39.9833 -74.9667 143° Southeast 186 214 5,100 -660 Climbing Philadelphia TRACON
09:48PM 39.9333 -75.0000 207° Southwest 182 209 3,700 -1,140 Descending Philadelphia TRACON
09:49PM 39.9167 -75.0500 247° West 168 193 2,700 -960 Descending Philadelphia TRACON
09:50PM 39.9000 -75.1000 247° West 164 189 1,800 -900 Descending Philadelphia TRACON
09:51PM 39.8833 -75.1667 252° West 162 186 1,000 -900 Descending Philadelphia TRACON